sensor_id;sensor_type;location;lat;lon;timestamp;P1;durP1;ratioP1;P2;durP2;ratioP2
4122;SDS011;2075;51.062;6.920;2022-08-03T00:01:54;7.27;;;4.17;;
4122;SDS011;2075;51.062;6.920;2022-08-03T00:04:39;7.53;;;4.03;;
4122;SDS011;2075;51.062;6.920;2022-08-03T00:07:24;5.37;;;4.47;;
4122;SDS011;2075;51.062;6.920;2022-08-03T00:10:10;6.33;;;4.30;;
4122;SDS011;2075;51.062;6.920;2022-08-03T00:12:57;5.60;;;4.70;;
4122;SDS011;2075;51.062;6.920;2022-08-03T00:15:42;9.80;;;5.70;;
4122;SDS011;2075;51.062;6.920;2022-08-03T00:18:29;13.90;;;5.10;;
4122;SDS011;2075;51.062;6.920;2022-08-03T00:21:17;5.67;;;5.10;;
4122;SDS011;2075;51.062;6.920;2022-08-03T00:24:02;13.13;;;5.67;;
4122;SDS011;2075;51.062;6.920;2022-08-03T00:26:48;14.03;;;5.90;;
4122;SDS011;2075;51.062;6.920;2022-08-03T00:29:33;22.43;;;5.63;;
4122;SDS011;2075;51.062;6.920;2022-08-03T00:32:19;7.87;;;5.87;;
4122;SDS011;2075;51.062;6.920;2022-08-03T00:35:06;11.73;;;5.97;;
4122;SDS011;2075;51.062;6.920;2022-08-03T00:37:52;8.40;;;5.73;;
4122;SDS011;2075;51.062;6.920;2022-08-03T00:40:37;7.87;;;5.47;;
4122;SDS011;2075;51.062;6.920;2022-08-03T00:43:24;7.40;;;5.10;;
4122;SDS011;2075;51.062;6.920;2022-08-03T00:46:10;7.77;;;5.90;;
4122;SDS011;2075;51.062;6.920;2022-08-03T00:48:55;9.40;;;5.30;;
4122;SDS011;2075;51.062;6.920;2022-08-03T00:51:42;8.93;;;5.73;;
4122;SDS011;2075;51.062;6.920;2022-08-03T00:54:28;9.37;;;4.77;;
4122;SDS011;2075;51.062;6.920;2022-08-03T00:57:14;10.53;;;5.97;;
4122;SDS011;2075;51.062;6.920;2022-08-03T00:59:59;11.20;;;5.87;;
4122;SDS011;2075;51.062;6.920;2022-08-03T01:02:45;8.47;;;5.40;;
4122;SDS011;2075;51.062;6.920;2022-08-03T01:05:32;5.80;;;4.93;;
4122;SDS011;2075;51.062;6.920;2022-08-03T01:08:25;17.40;;;6.10;;
4122;SDS011;2075;51.062;6.920;2022-08-03T01:11:16;13.53;;;5.60;;
4122;SDS011;2075;51.062;6.920;2022-08-03T01:14:08;7.23;;;5.30;;
4122;SDS011;2075;51.062;6.920;2022-08-03T01:16:58;10.00;;;5.80;;
4122;SDS011;2075;51.062;6.920;2022-08-03T01:19:49;12.47;;;5.80;;
4122;SDS011;2075;51.062;6.920;2022-08-03T01:26:18;9.20;;;6.00;;
4122;SDS011;2075;51.062;6.920;2022-08-03T01:32:43;7.63;;;5.70;;
4122;SDS011;2075;51.062;6.920;2022-08-03T01:35:33;9.80;;;5.60;;
4122;SDS011;2075;51.062;6.920;2022-08-03T01:38:23;9.13;;;5.40;;
4122;SDS011;2075;51.062;6.920;2022-08-03T01:41:14;7.57;;;5.30;;
4122;SDS011;2075;51.062;6.920;2022-08-03T01:44:03;7.90;;;5.40;;
4122;SDS011;2075;51.062;6.920;2022-08-03T01:46:53;7.87;;;4.80;;
4122;SDS011;2075;51.062;6.920;2022-08-03T01:49:42;9.30;;;5.60;;
4122;SDS011;2075;51.062;6.920;2022-08-03T01:52:29;7.83;;;5.10;;
4122;SDS011;2075;51.062;6.920;2022-08-03T01:55:16;10.83;;;5.17;;
4122;SDS011;2075;51.062;6.920;2022-08-03T01:58:04;7.37;;;5.00;;
4122;SDS011;2075;51.062;6.920;2022-08-03T02:00:51;9.43;;;5.30;;
4122;SDS011;2075;51.062;6.920;2022-08-03T02:03:43;7.37;;;5.00;;
4122;SDS011;2075;51.062;6.920;2022-08-03T02:06:31;9.50;;;4.90;;
4122;SDS011;2075;51.062;6.920;2022-08-03T02:09:19;7.00;;;5.50;;
4122;SDS011;2075;51.062;6.920;2022-08-03T02:12:07;9.63;;;5.37;;
4122;SDS011;2075;51.062;6.920;2022-08-03T02:14:54;5.50;;;4.57;;
4122;SDS011;2075;51.062;6.920;2022-08-03T02:17:41;6.30;;;4.83;;
4122;SDS011;2075;51.062;6.920;2022-08-03T02:20:29;6.17;;;4.67;;
4122;SDS011;2075;51.062;6.920;2022-08-03T02:23:18;5.13;;;4.43;;
4122;SDS011;2075;51.062;6.920;2022-08-03T02:26:05;6.53;;;4.67;;
4122;SDS011;2075;51.062;6.920;2022-08-03T02:28:53;5.87;;;4.30;;
4122;SDS011;2075;51.062;6.920;2022-08-03T02:31:40;7.40;;;5.20;;
4122;SDS011;2075;51.062;6.920;2022-08-03T02:34:28;6.20;;;4.83;;
4122;SDS011;2075;51.062;6.920;2022-08-03T02:37:19;10.73;;;4.60;;
4122;SDS011;2075;51.062;6.920;2022-08-03T02:40:08;5.23;;;4.80;;
4122;SDS011;2075;51.062;6.920;2022-08-03T02:42:57;7.47;;;5.17;;
4122;SDS011;2075;51.062;6.920;2022-08-03T02:45:44;9.17;;;5.93;;
4122;SDS011;2075;51.062;6.920;2022-08-03T02:48:31;17.97;;;6.33;;
4122;SDS011;2075;51.062;6.920;2022-08-03T02:51:20;12.40;;;6.33;;
4122;SDS011;2075;51.062;6.920;2022-08-03T02:54:08;9.67;;;5.80;;
4122;SDS011;2075;51.062;6.920;2022-08-03T02:56:55;11.43;;;5.63;;
4122;SDS011;2075;51.062;6.920;2022-08-03T02:59:42;14.20;;;6.70;;
4122;SDS011;2075;51.062;6.920;2022-08-03T03:02:30;14.80;;;6.50;;
4122;SDS011;2075;51.062;6.920;2022-08-03T03:05:16;12.67;;;6.10;;
4122;SDS011;2075;51.062;6.920;2022-08-03T03:08:02;8.43;;;6.10;;
4122;SDS011;2075;51.062;6.920;2022-08-03T03:10:50;10.00;;;6.00;;
4122;SDS011;2075;51.062;6.920;2022-08-03T03:13:37;12.87;;;6.03;;
4122;SDS011;2075;51.062;6.920;2022-08-03T03:16:25;10.60;;;6.27;;
4122;SDS011;2075;51.062;6.920;2022-08-03T03:19:13;12.93;;;5.70;;
4122;SDS011;2075;51.062;6.920;2022-08-03T03:22:00;8.77;;;6.13;;
4122;SDS011;2075;51.062;6.920;2022-08-03T03:24:47;11.57;;;6.03;;
4122;SDS011;2075;51.062;6.920;2022-08-03T03:27:35;13.97;;;5.77;;
4122;SDS011;2075;51.062;6.920;2022-08-03T03:30:21;8.33;;;4.90;;
4122;SDS011;2075;51.062;6.920;2022-08-03T03:33:06;6.20;;;5.07;;
4122;SDS011;2075;51.062;6.920;2022-08-03T03:35:52;7.00;;;4.73;;
4122;SDS011;2075;51.062;6.920;2022-08-03T03:38:38;6.53;;;4.50;;
4122;SDS011;2075;51.062;6.920;2022-08-03T03:41:23;10.70;;;5.17;;
4122;SDS011;2075;51.062;6.920;2022-08-03T03:44:10;9.47;;;5.20;;
4122;SDS011;2075;51.062;6.920;2022-08-03T03:46:56;8.77;;;5.60;;
4122;SDS011;2075;51.062;6.920;2022-08-03T03:49:42;5.90;;;5.30;;
4122;SDS011;2075;51.062;6.920;2022-08-03T03:52:28;6.40;;;4.90;;
4122;SDS011;2075;51.062;6.920;2022-08-03T03:55:16;12.37;;;9.70;;
4122;SDS011;2075;51.062;6.920;2022-08-03T03:58:02;4.87;;;4.37;;
4122;SDS011;2075;51.062;6.920;2022-08-03T04:00:49;7.57;;;5.10;;
4122;SDS011;2075;51.062;6.920;2022-08-03T04:03:36;6.33;;;4.40;;
4122;SDS011;2075;51.062;6.920;2022-08-03T04:06:22;6.00;;;4.50;;
4122;SDS011;2075;51.062;6.920;2022-08-03T04:09:25;5.53;;;4.20;;
4122;SDS011;2075;51.062;6.920;2022-08-03T04:12:25;5.47;;;4.20;;
4122;SDS011;2075;51.062;6.920;2022-08-03T04:15:13;6.50;;;5.03;;
4122;SDS011;2075;51.062;6.920;2022-08-03T04:18:01;5.30;;;4.80;;
4122;SDS011;2075;51.062;6.920;2022-08-03T04:20:48;6.20;;;5.20;;
4122;SDS011;2075;51.062;6.920;2022-08-03T04:23:36;11.20;;;5.90;;
4122;SDS011;2075;51.062;6.920;2022-08-03T04:26:26;7.23;;;4.50;;
4122;SDS011;2075;51.062;6.920;2022-08-03T04:29:15;6.73;;;4.63;;
4122;SDS011;2075;51.062;6.920;2022-08-03T04:32:02;18.30;;;15.67;;
4122;SDS011;2075;51.062;6.920;2022-08-03T04:34:51;7.07;;;6.30;;
4122;SDS011;2075;51.062;6.920;2022-08-03T04:37:38;10.57;;;6.63;;
4122;SDS011;2075;51.062;6.920;2022-08-03T04:40:26;7.60;;;5.53;;
4122;SDS011;2075;51.062;6.920;2022-08-03T04:43:15;5.73;;;4.90;;
4122;SDS011;2075;51.062;6.920;2022-08-03T04:46:02;7.33;;;4.67;;
4122;SDS011;2075;51.062;6.920;2022-08-03T04:48:48;7.87;;;4.83;;
4122;SDS011;2075;51.062;6.920;2022-08-03T04:51:36;6.23;;;4.93;;
4122;SDS011;2075;51.062;6.920;2022-08-03T04:54:23;5.20;;;4.30;;
4122;SDS011;2075;51.062;6.920;2022-08-03T04:57:08;5.00;;;4.40;;
4122;SDS011;2075;51.062;6.920;2022-08-03T04:59:54;6.20;;;4.83;;
4122;SDS011;2075;51.062;6.920;2022-08-03T05:02:39;5.13;;;4.33;;
4122;SDS011;2075;51.062;6.920;2022-08-03T05:05:24;5.20;;;4.67;;
4122;SDS011;2075;51.062;6.920;2022-08-03T05:08:11;4.90;;;4.40;;
4122;SDS011;2075;51.062;6.920;2022-08-03T05:10:56;6.80;;;4.40;;
4122;SDS011;2075;51.062;6.920;2022-08-03T05:13:42;5.70;;;4.73;;
4122;SDS011;2075;51.062;6.920;2022-08-03T05:16:28;10.30;;;4.40;;
4122;SDS011;2075;51.062;6.920;2022-08-03T05:19:13;5.03;;;4.50;;
4122;SDS011;2075;51.062;6.920;2022-08-03T05:21:59;13.40;;;4.37;;
4122;SDS011;2075;51.062;6.920;2022-08-03T05:24:45;15.83;;;4.47;;
4122;SDS011;2075;51.062;6.920;2022-08-03T05:27:31;8.00;;;4.57;;
4122;SDS011;2075;51.062;6.920;2022-08-03T05:30:16;5.10;;;3.93;;
4122;SDS011;2075;51.062;6.920;2022-08-03T05:33:02;5.53;;;4.07;;
4122;SDS011;2075;51.062;6.920;2022-08-03T05:35:47;6.53;;;3.70;;
4122;SDS011;2075;51.062;6.920;2022-08-03T05:38:32;5.90;;;3.53;;
4122;SDS011;2075;51.062;6.920;2022-08-03T05:41:20;5.57;;;3.40;;
4122;SDS011;2075;51.062;6.920;2022-08-03T05:44:05;3.80;;;3.30;;
4122;SDS011;2075;51.062;6.920;2022-08-03T05:46:51;9.90;;;7.70;;
4122;SDS011;2075;51.062;6.920;2022-08-03T05:49:36;4.60;;;4.30;;
4122;SDS011;2075;51.062;6.920;2022-08-03T05:52:22;9.00;;;7.53;;
4122;SDS011;2075;51.062;6.920;2022-08-03T05:55:08;4.00;;;3.70;;
4122;SDS011;2075;51.062;6.920;2022-08-03T05:57:55;4.57;;;4.17;;
4122;SDS011;2075;51.062;6.920;2022-08-03T06:00:40;3.83;;;3.50;;
4122;SDS011;2075;51.062;6.920;2022-08-03T06:03:25;3.53;;;3.23;;
4122;SDS011;2075;51.062;6.920;2022-08-03T06:06:11;4.20;;;3.80;;
4122;SDS011;2075;51.062;6.920;2022-08-03T06:08:56;5.00;;;3.20;;
4122;SDS011;2075;51.062;6.920;2022-08-03T06:11:41;4.10;;;3.40;;
4122;SDS011;2075;51.062;6.920;2022-08-03T06:14:28;5.15;;;3.28;;
4122;SDS011;2075;51.062;6.920;2022-08-03T06:17:14;4.88;;;3.65;;
4122;SDS011;2075;51.062;6.920;2022-08-03T06:19:59;6.13;;;3.90;;
4122;SDS011;2075;51.062;6.920;2022-08-03T06:22:45;4.60;;;3.08;;
4122;SDS011;2075;51.062;6.920;2022-08-03T06:25:31;3.53;;;3.33;;
4122;SDS011;2075;51.062;6.920;2022-08-03T06:28:16;3.20;;;3.00;;
4122;SDS011;2075;51.062;6.920;2022-08-03T06:31:03;5.65;;;3.03;;
4122;SDS011;2075;51.062;6.920;2022-08-03T06:33:49;3.25;;;3.05;;
4122;SDS011;2075;51.062;6.920;2022-08-03T06:36:34;3.10;;;3.00;;
4122;SDS011;2075;51.062;6.920;2022-08-03T06:39:20;4.78;;;3.03;;
4122;SDS011;2075;51.062;6.920;2022-08-03T06:42:06;3.38;;;3.20;;
4122;SDS011;2075;51.062;6.920;2022-08-03T06:44:52;3.35;;;3.25;;
4122;SDS011;2075;51.062;6.920;2022-08-03T06:47:38;3.53;;;3.03;;
4122;SDS011;2075;51.062;6.920;2022-08-03T06:50:24;2.90;;;2.80;;
4122;SDS011;2075;51.062;6.920;2022-08-03T06:53:10;3.15;;;3.03;;
4122;SDS011;2075;51.062;6.920;2022-08-03T06:55:55;5.03;;;3.13;;
4122;SDS011;2075;51.062;6.920;2022-08-03T06:58:41;3.30;;;3.17;;
4122;SDS011;2075;51.062;6.920;2022-08-03T07:01:26;4.82;;;3.10;;
4122;SDS011;2075;51.062;6.920;2022-08-03T07:04:13;3.72;;;2.85;;
4122;SDS011;2075;51.062;6.920;2022-08-03T07:06:58;3.15;;;2.97;;
4122;SDS011;2075;51.062;6.920;2022-08-03T07:09:44;3.05;;;2.67;;
4122;SDS011;2075;51.062;6.920;2022-08-03T07:12:30;2.80;;;2.70;;
4122;SDS011;2075;51.062;6.920;2022-08-03T07:15:16;3.10;;;3.00;;
4122;SDS011;2075;51.062;6.920;2022-08-03T07:18:02;3.00;;;2.80;;
4122;SDS011;2075;51.062;6.920;2022-08-03T07:20:50;7.93;;;2.80;;
4122;SDS011;2075;51.062;6.920;2022-08-03T07:23:35;2.78;;;2.58;;
4122;SDS011;2075;51.062;6.920;2022-08-03T07:26:21;3.75;;;2.47;;
4122;SDS011;2075;51.062;6.920;2022-08-03T07:29:06;4.47;;;3.47;;
4122;SDS011;2075;51.062;6.920;2022-08-03T07:31:52;2.88;;;2.65;;
4122;SDS011;2075;51.062;6.920;2022-08-03T07:34:37;3.00;;;2.80;;
4122;SDS011;2075;51.062;6.920;2022-08-03T07:37:24;4.07;;;2.60;;
4122;SDS011;2075;51.062;6.920;2022-08-03T07:40:10;4.45;;;2.40;;
4122;SDS011;2075;51.062;6.920;2022-08-03T07:42:55;4.25;;;2.20;;
4122;SDS011;2075;51.062;6.920;2022-08-03T07:45:41;7.25;;;2.80;;
4122;SDS011;2075;51.062;6.920;2022-08-03T07:48:27;2.55;;;2.45;;
4122;SDS011;2075;51.062;6.920;2022-08-03T07:51:12;3.63;;;2.30;;
4122;SDS011;2075;51.062;6.920;2022-08-03T07:53:59;6.65;;;2.20;;
4122;SDS011;2075;51.062;6.920;2022-08-03T07:56:45;5.07;;;2.40;;
4122;SDS011;2075;51.062;6.920;2022-08-03T07:59:30;8.25;;;2.53;;
4122;SDS011;2075;51.062;6.920;2022-08-03T08:02:17;6.18;;;3.72;;
4122;SDS011;2075;51.062;6.920;2022-08-03T08:05:03;4.25;;;2.60;;
4122;SDS011;2075;51.062;6.920;2022-08-03T08:07:49;4.13;;;2.50;;
4122;SDS011;2075;51.062;6.920;2022-08-03T08:10:36;2.30;;;2.20;;
4122;SDS011;2075;51.062;6.920;2022-08-03T08:13:21;2.55;;;1.83;;
4122;SDS011;2075;51.062;6.920;2022-08-03T08:16:06;2.42;;;2.33;;
4122;SDS011;2075;51.062;6.920;2022-08-03T08:18:52;2.13;;;1.90;;
4122;SDS011;2075;51.062;6.920;2022-08-03T08:21:37;3.28;;;1.77;;
4122;SDS011;2075;51.062;6.920;2022-08-03T08:24:23;2.28;;;2.15;;
4122;SDS011;2075;51.062;6.920;2022-08-03T08:27:10;5.03;;;2.03;;
4122;SDS011;2075;51.062;6.920;2022-08-03T08:29:55;2.70;;;2.13;;
4122;SDS011;2075;51.062;6.920;2022-08-03T08:32:41;2.75;;;2.03;;
4122;SDS011;2075;51.062;6.920;2022-08-03T08:35:26;2.78;;;2.15;;
4122;SDS011;2075;51.062;6.920;2022-08-03T08:38:11;3.17;;;2.25;;
4122;SDS011;2075;51.062;6.920;2022-08-03T08:40:57;2.22;;;2.03;;
4122;SDS011;2075;51.062;6.920;2022-08-03T08:43:44;3.42;;;2.92;;
4122;SDS011;2075;51.062;6.920;2022-08-03T08:46:31;6.22;;;2.10;;
4122;SDS011;2075;51.062;6.920;2022-08-03T08:49:17;8.63;;;2.10;;
4122;SDS011;2075;51.062;6.920;2022-08-03T08:52:07;2.00;;;2.00;;
4122;SDS011;2075;51.062;6.920;2022-08-03T08:54:53;2.00;;;1.90;;
4122;SDS011;2075;51.062;6.920;2022-08-03T08:57:41;2.03;;;1.83;;
4122;SDS011;2075;51.062;6.920;2022-08-03T09:00:32;12.55;;;1.83;;
4122;SDS011;2075;51.062;6.920;2022-08-03T09:03:17;3.63;;;1.90;;
4122;SDS011;2075;51.062;6.920;2022-08-03T09:06:03;3.08;;;2.10;;
4122;SDS011;2075;51.062;6.920;2022-08-03T09:08:49;2.53;;;1.95;;
4122;SDS011;2075;51.062;6.920;2022-08-03T09:11:35;2.78;;;2.25;;
4122;SDS011;2075;51.062;6.920;2022-08-03T09:14:20;7.22;;;3.20;;
4122;SDS011;2075;51.062;6.920;2022-08-03T09:17:08;2.80;;;2.47;;
4122;SDS011;2075;51.062;6.920;2022-08-03T09:20:02;2.47;;;2.22;;
4122;SDS011;2075;51.062;6.920;2022-08-03T09:22:55;3.83;;;2.35;;
4122;SDS011;2075;51.062;6.920;2022-08-03T09:25:41;2.78;;;2.53;;
4122;SDS011;2075;51.062;6.920;2022-08-03T09:28:33;3.00;;;2.67;;
4122;SDS011;2075;51.062;6.920;2022-08-03T09:31:19;3.23;;;3.00;;
4122;SDS011;2075;51.062;6.920;2022-08-03T09:34:14;5.83;;;4.40;;
4122;SDS011;2075;51.062;6.920;2022-08-03T09:37:00;6.27;;;5.70;;
4122;SDS011;2075;51.062;6.920;2022-08-03T09:39:46;6.77;;;3.30;;
4122;SDS011;2075;51.062;6.920;2022-08-03T09:42:31;4.77;;;2.80;;
4122;SDS011;2075;51.062;6.920;2022-08-03T09:45:24;9.97;;;2.50;;
4122;SDS011;2075;51.062;6.920;2022-08-03T09:48:20;4.67;;;2.87;;
4122;SDS011;2075;51.062;6.920;2022-08-03T09:51:11;3.77;;;2.17;;
4122;SDS011;2075;51.062;6.920;2022-08-03T09:53:58;4.27;;;2.20;;
4122;SDS011;2075;51.062;6.920;2022-08-03T09:56:47;2.27;;;2.10;;
4122;SDS011;2075;51.062;6.920;2022-08-03T09:59:32;4.13;;;2.37;;
4122;SDS011;2075;51.062;6.920;2022-08-03T10:02:22;3.60;;;2.60;;
4122;SDS011;2075;51.062;6.920;2022-08-03T10:05:09;8.33;;;2.50;;
4122;SDS011;2075;51.062;6.920;2022-08-03T10:07:57;3.90;;;2.10;;
4122;SDS011;2075;51.062;6.920;2022-08-03T10:10:42;2.00;;;1.90;;
4122;SDS011;2075;51.062;6.920;2022-08-03T10:13:29;1.70;;;1.60;;
4122;SDS011;2075;51.062;6.920;2022-08-03T10:16:14;4.03;;;2.13;;
4122;SDS011;2075;51.062;6.920;2022-08-03T10:19:00;3.57;;;1.90;;
4122;SDS011;2075;51.062;6.920;2022-08-03T10:21:46;4.67;;;3.30;;
4122;SDS011;2075;51.062;6.920;2022-08-03T10:24:35;3.33;;;2.00;;
4122;SDS011;2075;51.062;6.920;2022-08-03T10:27:23;2.33;;;2.10;;
4122;SDS011;2075;51.062;6.920;2022-08-03T10:30:11;2.53;;;2.37;;
4122;SDS011;2075;51.062;6.920;2022-08-03T10:32:58;6.17;;;2.30;;
4122;SDS011;2075;51.062;6.920;2022-08-03T10:35:49;2.77;;;1.63;;
4122;SDS011;2075;51.062;6.920;2022-08-03T10:38:39;5.20;;;4.70;;
4122;SDS011;2075;51.062;6.920;2022-08-03T10:41:31;2.23;;;2.13;;
4122;SDS011;2075;51.062;6.920;2022-08-03T10:44:21;9.80;;;1.80;;
4122;SDS011;2075;51.062;6.920;2022-08-03T10:47:08;3.80;;;2.03;;
4122;SDS011;2075;51.062;6.920;2022-08-03T10:49:55;2.33;;;1.80;;
4122;SDS011;2075;51.062;6.920;2022-08-03T10:52:54;3.47;;;1.70;;
4122;SDS011;2075;51.062;6.920;2022-08-03T10:55:41;3.87;;;1.50;;
4122;SDS011;2075;51.062;6.920;2022-08-03T10:58:47;4.00;;;1.70;;
4122;SDS011;2075;51.062;6.920;2022-08-03T11:04:39;4.30;;;1.70;;
4122;SDS011;2075;51.062;6.920;2022-08-03T11:07:25;2.00;;;1.90;;
4122;SDS011;2075;51.062;6.920;2022-08-03T11:10:15;2.50;;;1.67;;
4122;SDS011;2075;51.062;6.920;2022-08-03T11:13:14;1.70;;;1.40;;
4122;SDS011;2075;51.062;6.920;2022-08-03T11:16:03;4.87;;;2.93;;
4122;SDS011;2075;51.062;6.920;2022-08-03T11:19:04;2.97;;;1.80;;
4122;SDS011;2075;51.062;6.920;2022-08-03T11:21:51;2.90;;;1.83;;
4122;SDS011;2075;51.062;6.920;2022-08-03T11:27:45;6.50;;;1.93;;
4122;SDS011;2075;51.062;6.920;2022-08-03T11:30:31;8.00;;;2.60;;
4122;SDS011;2075;51.062;6.920;2022-08-03T11:33:29;1.70;;;1.60;;
4122;SDS011;2075;51.062;6.920;2022-08-03T11:36:15;1.70;;;1.60;;
4122;SDS011;2075;51.062;6.920;2022-08-03T11:39:13;2.93;;;1.97;;
4122;SDS011;2075;51.062;6.920;2022-08-03T11:41:59;7.23;;;2.10;;
4122;SDS011;2075;51.062;6.920;2022-08-03T11:44:44;1.73;;;1.63;;
4122;SDS011;2075;51.062;6.920;2022-08-03T11:47:30;4.07;;;1.80;;
4122;SDS011;2075;51.062;6.920;2022-08-03T11:50:23;4.33;;;2.10;;
4122;SDS011;2075;51.062;6.920;2022-08-03T11:53:11;2.80;;;1.73;;
4122;SDS011;2075;51.062;6.920;2022-08-03T11:55:59;4.40;;;1.70;;
4122;SDS011;2075;51.062;6.920;2022-08-03T11:58:45;3.43;;;1.77;;
4122;SDS011;2075;51.062;6.920;2022-08-03T12:01:32;2.87;;;2.00;;
4122;SDS011;2075;51.062;6.920;2022-08-03T12:04:18;2.27;;;1.70;;
4122;SDS011;2075;51.062;6.920;2022-08-03T12:07:05;1.97;;;1.77;;
4122;SDS011;2075;51.062;6.920;2022-08-03T12:10:04;2.67;;;2.03;;
4122;SDS011;2075;51.062;6.920;2022-08-03T12:12:53;9.33;;;1.70;;
4122;SDS011;2075;51.062;6.920;2022-08-03T12:15:39;3.23;;;1.70;;
4122;SDS011;2075;51.062;6.920;2022-08-03T12:18:25;3.57;;;1.83;;
4122;SDS011;2075;51.062;6.920;2022-08-03T12:21:11;2.27;;;1.73;;
4122;SDS011;2075;51.062;6.920;2022-08-03T12:23:58;4.50;;;1.80;;
4122;SDS011;2075;51.062;6.920;2022-08-03T12:26:45;1.80;;;1.70;;
4122;SDS011;2075;51.062;6.920;2022-08-03T12:29:31;1.70;;;1.60;;
4122;SDS011;2075;51.062;6.920;2022-08-03T12:32:17;2.60;;;1.73;;
4122;SDS011;2075;51.062;6.920;2022-08-03T12:35:03;6.53;;;1.83;;
4122;SDS011;2075;51.062;6.920;2022-08-03T12:37:49;1.83;;;1.73;;
4122;SDS011;2075;51.062;6.920;2022-08-03T12:40:37;1.87;;;1.77;;
4122;SDS011;2075;51.062;6.920;2022-08-03T12:43:23;3.10;;;2.10;;
4122;SDS011;2075;51.062;6.920;2022-08-03T12:46:10;5.10;;;1.80;;
4122;SDS011;2075;51.062;6.920;2022-08-03T12:48:57;2.30;;;1.90;;
4122;SDS011;2075;51.062;6.920;2022-08-03T12:51:57;2.80;;;2.00;;
4122;SDS011;2075;51.062;6.920;2022-08-03T12:54:52;1.93;;;1.73;;
4122;SDS011;2075;51.062;6.920;2022-08-03T12:57:40;3.33;;;1.97;;
4122;SDS011;2075;51.062;6.920;2022-08-03T13:00:26;3.50;;;1.80;;
4122;SDS011;2075;51.062;6.920;2022-08-03T13:03:13;2.87;;;1.70;;
4122;SDS011;2075;51.062;6.920;2022-08-03T13:05:58;3.60;;;1.60;;
4122;SDS011;2075;51.062;6.920;2022-08-03T13:08:44;4.10;;;2.37;;
4122;SDS011;2075;51.062;6.920;2022-08-03T13:11:31;5.20;;;2.27;;
4122;SDS011;2075;51.062;6.920;2022-08-03T13:14:17;2.90;;;2.00;;
4122;SDS011;2075;51.062;6.920;2022-08-03T13:17:03;1.70;;;1.60;;
4122;SDS011;2075;51.062;6.920;2022-08-03T13:19:50;1.60;;;1.50;;
4122;SDS011;2075;51.062;6.920;2022-08-03T13:22:36;4.43;;;1.60;;
4122;SDS011;2075;51.062;6.920;2022-08-03T13:25:22;2.20;;;1.70;;
4122;SDS011;2075;51.062;6.920;2022-08-03T13:28:07;2.30;;;1.63;;
4122;SDS011;2075;51.062;6.920;2022-08-03T13:30:54;1.60;;;1.50;;
4122;SDS011;2075;51.062;6.920;2022-08-03T13:33:40;3.07;;;1.87;;
4122;SDS011;2075;51.062;6.920;2022-08-03T13:36:25;1.30;;;1.30;;
4122;SDS011;2075;51.062;6.920;2022-08-03T13:39:11;2.20;;;1.50;;
4122;SDS011;2075;51.062;6.920;2022-08-03T13:41:57;4.10;;;1.70;;
4122;SDS011;2075;51.062;6.920;2022-08-03T13:44:42;2.93;;;1.70;;
4122;SDS011;2075;51.062;6.920;2022-08-03T13:47:29;7.30;;;1.83;;
4122;SDS011;2075;51.062;6.920;2022-08-03T13:50:15;10.00;;;1.67;;
4122;SDS011;2075;51.062;6.920;2022-08-03T13:53:01;14.53;;;1.90;;
4122;SDS011;2075;51.062;6.920;2022-08-03T13:55:46;7.43;;;1.87;;
4122;SDS011;2075;51.062;6.920;2022-08-03T13:58:32;5.73;;;1.90;;
4122;SDS011;2075;51.062;6.920;2022-08-03T14:01:17;1.80;;;1.70;;
4122;SDS011;2075;51.062;6.920;2022-08-03T14:04:04;1.77;;;1.73;;
4122;SDS011;2075;51.062;6.920;2022-08-03T14:06:50;2.10;;;1.67;;
4122;SDS011;2075;51.062;6.920;2022-08-03T14:09:35;2.23;;;2.03;;
4122;SDS011;2075;51.062;6.920;2022-08-03T14:12:21;4.97;;;1.77;;
4122;SDS011;2075;51.062;6.920;2022-08-03T14:15:07;2.97;;;1.60;;
4122;SDS011;2075;51.062;6.920;2022-08-03T14:17:53;4.20;;;1.90;;
4122;SDS011;2075;51.062;6.920;2022-08-03T14:20:41;1.70;;;1.60;;
4122;SDS011;2075;51.062;6.920;2022-08-03T14:23:27;2.87;;;1.50;;
4122;SDS011;2075;51.062;6.920;2022-08-03T14:26:12;2.73;;;1.63;;
4122;SDS011;2075;51.062;6.920;2022-08-03T14:28:58;3.53;;;1.57;;
4122;SDS011;2075;51.062;6.920;2022-08-03T14:31:43;8.40;;;1.73;;
4122;SDS011;2075;51.062;6.920;2022-08-03T14:34:29;3.30;;;2.13;;
4122;SDS011;2075;51.062;6.920;2022-08-03T14:37:16;2.13;;;2.00;;
4122;SDS011;2075;51.062;6.920;2022-08-03T14:40:03;8.50;;;2.20;;
4122;SDS011;2075;51.062;6.920;2022-08-03T14:42:49;7.20;;;1.90;;
4122;SDS011;2075;51.062;6.920;2022-08-03T14:45:36;2.17;;;1.97;;
4122;SDS011;2075;51.062;6.920;2022-08-03T14:48:22;2.93;;;1.70;;
4122;SDS011;2075;51.062;6.920;2022-08-03T14:51:10;2.93;;;1.90;;
4122;SDS011;2075;51.062;6.920;2022-08-03T14:53:56;4.00;;;1.90;;
4122;SDS011;2075;51.062;6.920;2022-08-03T14:56:42;4.20;;;2.07;;
4122;SDS011;2075;51.062;6.920;2022-08-03T14:59:28;4.77;;;1.70;;
4122;SDS011;2075;51.062;6.920;2022-08-03T15:02:13;5.43;;;1.83;;
4122;SDS011;2075;51.062;6.920;2022-08-03T15:04:59;2.33;;;1.73;;
4122;SDS011;2075;51.062;6.920;2022-08-03T15:07:45;2.03;;;1.73;;
4122;SDS011;2075;51.062;6.920;2022-08-03T15:10:32;3.80;;;2.00;;
4122;SDS011;2075;51.062;6.920;2022-08-03T15:13:17;3.13;;;2.83;;
4122;SDS011;2075;51.062;6.920;2022-08-03T15:16:04;6.77;;;2.43;;
4122;SDS011;2075;51.062;6.920;2022-08-03T15:18:51;1.67;;;1.60;;
4122;SDS011;2075;51.062;6.920;2022-08-03T15:21:36;2.60;;;2.50;;
4122;SDS011;2075;51.062;6.920;2022-08-03T15:24:22;2.70;;;2.00;;
4122;SDS011;2075;51.062;6.920;2022-08-03T15:27:08;2.13;;;1.70;;
4122;SDS011;2075;51.062;6.920;2022-08-03T15:29:54;8.93;;;1.87;;
4122;SDS011;2075;51.062;6.920;2022-08-03T15:32:40;1.73;;;1.63;;
4122;SDS011;2075;51.062;6.920;2022-08-03T15:35:25;1.93;;;1.83;;
4122;SDS011;2075;51.062;6.920;2022-08-03T15:38:12;2.53;;;2.33;;
4122;SDS011;2075;51.062;6.920;2022-08-03T15:40:57;1.60;;;1.50;;
4122;SDS011;2075;51.062;6.920;2022-08-03T15:43:44;1.90;;;1.80;;
4122;SDS011;2075;51.062;6.920;2022-08-03T15:46:30;1.70;;;1.60;;
4122;SDS011;2075;51.062;6.920;2022-08-03T15:49:16;7.83;;;1.90;;
4122;SDS011;2075;51.062;6.920;2022-08-03T15:52:03;3.33;;;2.10;;
4122;SDS011;2075;51.062;6.920;2022-08-03T15:54:49;2.40;;;1.73;;
4122;SDS011;2075;51.062;6.920;2022-08-03T15:57:35;1.93;;;1.70;;
4122;SDS011;2075;51.062;6.920;2022-08-03T16:00:22;3.23;;;1.80;;
4122;SDS011;2075;51.062;6.920;2022-08-03T16:03:08;2.87;;;2.03;;
4122;SDS011;2075;51.062;6.920;2022-08-03T16:05:53;1.90;;;1.80;;
4122;SDS011;2075;51.062;6.920;2022-08-03T16:08:39;2.60;;;1.80;;
4122;SDS011;2075;51.062;6.920;2022-08-03T16:11:24;1.83;;;1.73;;
4122;SDS011;2075;51.062;6.920;2022-08-03T16:14:10;4.83;;;2.07;;
4122;SDS011;2075;51.062;6.920;2022-08-03T16:16:57;3.77;;;2.20;;
4122;SDS011;2075;51.062;6.920;2022-08-03T16:19:43;2.00;;;1.90;;
4122;SDS011;2075;51.062;6.920;2022-08-03T16:22:28;5.80;;;1.90;;
4122;SDS011;2075;51.062;6.920;2022-08-03T16:25:15;2.77;;;1.60;;
4122;SDS011;2075;51.062;6.920;2022-08-03T16:28:01;2.53;;;1.77;;
4122;SDS011;2075;51.062;6.920;2022-08-03T16:30:47;1.70;;;1.60;;
4122;SDS011;2075;51.062;6.920;2022-08-03T16:33:34;1.13;;;1.13;;
4122;SDS011;2075;51.062;6.920;2022-08-03T16:36:19;1.30;;;1.20;;
4122;SDS011;2075;51.062;6.920;2022-08-03T16:39:05;1.67;;;1.30;;
4122;SDS011;2075;51.062;6.920;2022-08-03T16:41:50;2.53;;;1.87;;
4122;SDS011;2075;51.062;6.920;2022-08-03T16:44:36;2.57;;;1.40;;
4122;SDS011;2075;51.062;6.920;2022-08-03T16:47:22;3.07;;;1.40;;
4122;SDS011;2075;51.062;6.920;2022-08-03T16:50:08;3.53;;;1.60;;
4122;SDS011;2075;51.062;6.920;2022-08-03T16:52:54;6.97;;;1.50;;
4122;SDS011;2075;51.062;6.920;2022-08-03T16:55:40;1.97;;;1.30;;
4122;SDS011;2075;51.062;6.920;2022-08-03T16:58:25;2.30;;;1.80;;
4122;SDS011;2075;51.062;6.920;2022-08-03T17:01:11;3.60;;;1.53;;
4122;SDS011;2075;51.062;6.920;2022-08-03T17:03:58;2.10;;;1.27;;
4122;SDS011;2075;51.062;6.920;2022-08-03T17:06:46;3.03;;;1.37;;
4122;SDS011;2075;51.062;6.920;2022-08-03T17:09:31;2.97;;;1.20;;
4122;SDS011;2075;51.062;6.920;2022-08-03T17:12:16;1.97;;;1.40;;
4122;SDS011;2075;51.062;6.920;2022-08-03T17:15:03;2.00;;;1.40;;
4122;SDS011;2075;51.062;6.920;2022-08-03T17:17:51;4.73;;;2.00;;
4122;SDS011;2075;51.062;6.920;2022-08-03T17:20:45;9.30;;;1.53;;
4122;SDS011;2075;51.062;6.920;2022-08-03T17:23:37;2.03;;;1.50;;
4122;SDS011;2075;51.062;6.920;2022-08-03T17:26:28;2.83;;;1.53;;
4122;SDS011;2075;51.062;6.920;2022-08-03T17:29:18;3.50;;;1.13;;
4122;SDS011;2075;51.062;6.920;2022-08-03T17:32:04;3.07;;;1.10;;